sensor_id;sensor_type;location;lat;lon;timestamp;P1;durP1;ratioP1;P2;durP2;ratioP2
8399;SDS011;4237;47.030;15.396;2022-08-20T00:01:26;7.47;;;4.80;;
8399;SDS011;4237;47.030;15.396;2022-08-20T00:03:54;12.27;;;5.57;;
8399;SDS011;4237;47.030;15.396;2022-08-20T00:06:22;10.23;;;5.37;;
8399;SDS011;4237;47.030;15.396;2022-08-20T00:08:51;13.73;;;5.17;;
8399;SDS011;4237;47.030;15.396;2022-08-20T00:11:21;13.10;;;5.03;;
8399;SDS011;4237;47.030;15.396;2022-08-20T00:13:50;10.87;;;5.13;;
8399;SDS011;4237;47.030;15.396;2022-08-20T00:16:19;14.00;;;5.60;;
8399;SDS011;4237;47.030;15.396;2022-08-20T00:18:47;9.50;;;4.60;;
8399;SDS011;4237;47.030;15.396;2022-08-20T00:21:17;11.90;;;5.23;;
8399;SDS011;4237;47.030;15.396;2022-08-20T00:23:48;11.73;;;5.40;;
8399;SDS011;4237;47.030;15.396;2022-08-20T00:26:15;13.17;;;5.33;;
8399;SDS011;4237;47.030;15.396;2022-08-20T00:28:44;12.57;;;5.73;;
8399;SDS011;4237;47.030;15.396;2022-08-20T00:31:13;12.27;;;4.93;;
8399;SDS011;4237;47.030;15.396;2022-08-20T00:33:43;12.70;;;5.50;;
8399;SDS011;4237;47.030;15.396;2022-08-20T00:36:12;10.93;;;5.10;;
8399;SDS011;4237;47.030;15.396;2022-08-20T00:38:42;13.87;;;5.90;;
8399;SDS011;4237;47.030;15.396;2022-08-20T00:41:13;13.83;;;6.00;;
8399;SDS011;4237;47.030;15.396;2022-08-20T00:43:51;9.13;;;4.93;;
8399;SDS011;4237;47.030;15.396;2022-08-20T00:46:11;12.43;;;5.10;;
8399;SDS011;4237;47.030;15.396;2022-08-20T00:48:44;8.80;;;4.50;;
8399;SDS011;4237;47.030;15.396;2022-08-20T00:51:11;11.00;;;5.23;;
8399;SDS011;4237;47.030;15.396;2022-08-20T00:53:41;10.63;;;5.27;;
8399;SDS011;4237;47.030;15.396;2022-08-20T00:56:09;13.90;;;4.90;;
8399;SDS011;4237;47.030;15.396;2022-08-20T00:58:38;11.00;;;4.83;;
8399;SDS011;4237;47.030;15.396;2022-08-20T01:01:07;11.23;;;5.53;;
8399;SDS011;4237;47.030;15.396;2022-08-20T01:03:36;12.27;;;5.17;;
8399;SDS011;4237;47.030;15.396;2022-08-20T01:06:06;12.50;;;5.23;;
8399;SDS011;4237;47.030;15.396;2022-08-20T01:08:34;11.90;;;5.43;;
8399;SDS011;4237;47.030;15.396;2022-08-20T01:11:03;12.20;;;5.07;;
8399;SDS011;4237;47.030;15.396;2022-08-20T01:13:36;11.07;;;5.03;;
8399;SDS011;4237;47.030;15.396;2022-08-20T01:16:10;9.53;;;5.30;;
8399;SDS011;4237;47.030;15.396;2022-08-20T01:18:36;12.63;;;5.37;;
8399;SDS011;4237;47.030;15.396;2022-08-20T01:21:05;9.87;;;4.80;;
8399;SDS011;4237;47.030;15.396;2022-08-20T01:26:18;11.23;;;5.40;;
8399;SDS011;4237;47.030;15.396;2022-08-20T01:28:48;13.00;;;5.83;;
8399;SDS011;4237;47.030;15.396;2022-08-20T01:31:18;9.77;;;5.10;;
8399;SDS011;4237;47.030;15.396;2022-08-20T01:33:46;13.70;;;6.10;;
8399;SDS011;4237;47.030;15.396;2022-08-20T01:36:15;14.30;;;5.77;;
8399;SDS011;4237;47.030;15.396;2022-08-20T01:38:44;12.73;;;5.67;;
8399;SDS011;4237;47.030;15.396;2022-08-20T01:41:28;15.73;;;6.47;;
8399;SDS011;4237;47.030;15.396;2022-08-20T01:43:52;11.27;;;5.40;;
8399;SDS011;4237;47.030;15.396;2022-08-20T01:46:23;12.67;;;6.43;;
8399;SDS011;4237;47.030;15.396;2022-08-20T01:48:52;11.97;;;5.60;;
8399;SDS011;4237;47.030;15.396;2022-08-20T01:51:27;13.10;;;5.97;;
8399;SDS011;4237;47.030;15.396;2022-08-20T01:53:55;13.37;;;5.97;;
8399;SDS011;4237;47.030;15.396;2022-08-20T01:56:28;9.90;;;6.20;;
8399;SDS011;4237;47.030;15.396;2022-08-20T01:58:56;17.37;;;6.13;;
8399;SDS011;4237;47.030;15.396;2022-08-20T02:03:56;12.77;;;6.60;;
8399;SDS011;4237;47.030;15.396;2022-08-20T02:06:25;12.37;;;6.13;;
8399;SDS011;4237;47.030;15.396;2022-08-20T02:08:54;12.40;;;5.87;;
8399;SDS011;4237;47.030;15.396;2022-08-20T02:11:23;14.03;;;6.43;;
8399;SDS011;4237;47.030;15.396;2022-08-20T02:13:52;17.07;;;6.10;;
8399;SDS011;4237;47.030;15.396;2022-08-20T02:16:27;9.77;;;5.73;;
8399;SDS011;4237;47.030;15.396;2022-08-20T02:18:50;14.37;;;6.30;;
8399;SDS011;4237;47.030;15.396;2022-08-20T02:21:21;12.50;;;6.03;;
8399;SDS011;4237;47.030;15.396;2022-08-20T02:23:49;9.00;;;5.63;;
8399;SDS011;4237;47.030;15.396;2022-08-20T02:26:18;11.50;;;6.03;;
8399;SDS011;4237;47.030;15.396;2022-08-20T02:28:47;16.13;;;6.30;;
8399;SDS011;4237;47.030;15.396;2022-08-20T02:31:17;16.40;;;6.10;;
8399;SDS011;4237;47.030;15.396;2022-08-20T02:33:46;17.27;;;6.20;;
8399;SDS011;4237;47.030;15.396;2022-08-20T02:36:16;12.60;;;5.93;;
8399;SDS011;4237;47.030;15.396;2022-08-20T02:38:46;10.27;;;4.97;;
8399;SDS011;4237;47.030;15.396;2022-08-20T02:41:15;14.73;;;5.07;;
8399;SDS011;4237;47.030;15.396;2022-08-20T02:43:43;12.83;;;5.10;;
8399;SDS011;4237;47.030;15.396;2022-08-20T02:46:11;13.43;;;5.10;;
8399;SDS011;4237;47.030;15.396;2022-08-20T02:48:41;13.53;;;5.13;;
8399;SDS011;4237;47.030;15.396;2022-08-20T02:51:09;7.53;;;4.37;;
8399;SDS011;4237;47.030;15.396;2022-08-20T02:53:39;14.17;;;5.30;;
8399;SDS011;4237;47.030;15.396;2022-08-20T02:56:09;9.70;;;4.80;;
8399;SDS011;4237;47.030;15.396;2022-08-20T02:58:38;12.63;;;4.80;;
8399;SDS011;4237;47.030;15.396;2022-08-20T03:01:08;14.87;;;4.80;;
8399;SDS011;4237;47.030;15.396;2022-08-20T03:03:38;15.93;;;5.07;;
8399;SDS011;4237;47.030;15.396;2022-08-20T03:06:07;10.70;;;4.67;;
8399;SDS011;4237;47.030;15.396;2022-08-20T03:08:35;10.47;;;5.00;;
8399;SDS011;4237;47.030;15.396;2022-08-20T03:11:04;14.17;;;4.97;;
8399;SDS011;4237;47.030;15.396;2022-08-20T03:13:33;12.63;;;5.00;;
8399;SDS011;4237;47.030;15.396;2022-08-20T03:16:02;11.10;;;4.70;;
8399;SDS011;4237;47.030;15.396;2022-08-20T03:18:32;7.93;;;4.77;;
8399;SDS011;4237;47.030;15.396;2022-08-20T03:21:02;12.27;;;5.13;;
8399;SDS011;4237;47.030;15.396;2022-08-20T03:23:31;11.57;;;4.63;;
8399;SDS011;4237;47.030;15.396;2022-08-20T03:26:00;14.90;;;5.10;;
8399;SDS011;4237;47.030;15.396;2022-08-20T03:28:29;11.10;;;4.87;;
8399;SDS011;4237;47.030;15.396;2022-08-20T03:30:57;9.30;;;4.90;;
8399;SDS011;4237;47.030;15.396;2022-08-20T03:33:26;14.03;;;4.60;;
8399;SDS011;4237;47.030;15.396;2022-08-20T03:35:55;9.70;;;3.80;;
8399;SDS011;4237;47.030;15.396;2022-08-20T03:38:23;14.23;;;5.00;;
8399;SDS011;4237;47.030;15.396;2022-08-20T03:40:51;9.80;;;4.70;;
8399;SDS011;4237;47.030;15.396;2022-08-20T03:43:20;9.47;;;4.50;;
8399;SDS011;4237;47.030;15.396;2022-08-20T03:45:48;10.80;;;4.30;;
8399;SDS011;4237;47.030;15.396;2022-08-20T03:48:17;13.73;;;4.50;;
8399;SDS011;4237;47.030;15.396;2022-08-20T03:50:47;11.20;;;4.27;;
8399;SDS011;4237;47.030;15.396;2022-08-20T03:53:17;9.67;;;4.30;;
8399;SDS011;4237;47.030;15.396;2022-08-20T03:55:46;12.13;;;4.40;;
8399;SDS011;4237;47.030;15.396;2022-08-20T03:58:14;10.70;;;4.50;;
8399;SDS011;4237;47.030;15.396;2022-08-20T04:00:45;10.43;;;4.20;;
8399;SDS011;4237;47.030;15.396;2022-08-20T04:03:14;10.13;;;4.50;;
8399;SDS011;4237;47.030;15.396;2022-08-20T04:05:44;10.57;;;4.50;;
8399;SDS011;4237;47.030;15.396;2022-08-20T04:08:14;9.30;;;4.47;;
8399;SDS011;4237;47.030;15.396;2022-08-20T04:10:42;13.33;;;4.40;;
8399;SDS011;4237;47.030;15.396;2022-08-20T04:13:13;8.13;;;4.80;;
8399;SDS011;4237;47.030;15.396;2022-08-20T04:15:42;10.70;;;4.50;;
8399;SDS011;4237;47.030;15.396;2022-08-20T04:18:11;10.53;;;4.43;;
8399;SDS011;4237;47.030;15.396;2022-08-20T04:20:41;12.17;;;5.03;;
8399;SDS011;4237;47.030;15.396;2022-08-20T04:23:10;8.53;;;4.40;;
8399;SDS011;4237;47.030;15.396;2022-08-20T04:25:40;9.57;;;4.90;;
8399;SDS011;4237;47.030;15.396;2022-08-20T04:28:13;7.50;;;4.50;;
8399;SDS011;4237;47.030;15.396;2022-08-20T04:30:41;16.37;;;5.23;;
8399;SDS011;4237;47.030;15.396;2022-08-20T04:33:10;11.20;;;4.93;;
8399;SDS011;4237;47.030;15.396;2022-08-20T04:35:38;7.23;;;4.47;;
8399;SDS011;4237;47.030;15.396;2022-08-20T04:38:08;9.20;;;4.20;;
8399;SDS011;4237;47.030;15.396;2022-08-20T04:40:36;10.63;;;4.40;;
8399;SDS011;4237;47.030;15.396;2022-08-20T04:43:20;9.37;;;4.13;;
8399;SDS011;4237;47.030;15.396;2022-08-20T04:45:52;7.83;;;4.20;;
8399;SDS011;4237;47.030;15.396;2022-08-20T04:48:22;8.17;;;3.90;;
8399;SDS011;4237;47.030;15.396;2022-08-20T04:50:51;12.77;;;4.30;;
8399;SDS011;4237;47.030;15.396;2022-08-20T04:53:21;7.63;;;3.83;;
8399;SDS011;4237;47.030;15.396;2022-08-20T04:55:50;8.27;;;4.07;;
8399;SDS011;4237;47.030;15.396;2022-08-20T04:58:19;5.63;;;3.70;;
8399;SDS011;4237;47.030;15.396;2022-08-20T05:00:53;8.97;;;3.60;;
8399;SDS011;4237;47.030;15.396;2022-08-20T05:03:18;8.63;;;3.73;;
8399;SDS011;4237;47.030;15.396;2022-08-20T05:05:46;5.50;;;3.23;;
8399;SDS011;4237;47.030;15.396;2022-08-20T05:08:16;13.00;;;3.90;;
8399;SDS011;4237;47.030;15.396;2022-08-20T05:10:45;7.67;;;3.43;;
8399;SDS011;4237;47.030;15.396;2022-08-20T05:13:13;7.73;;;3.20;;
8399;SDS011;4237;47.030;15.396;2022-08-20T05:15:42;7.87;;;3.17;;
8399;SDS011;4237;47.030;15.396;2022-08-20T05:18:11;8.23;;;3.60;;
8399;SDS011;4237;47.030;15.396;2022-08-20T05:20:40;5.93;;;3.10;;
8399;SDS011;4237;47.030;15.396;2022-08-20T05:23:09;7.57;;;3.10;;
8399;SDS011;4237;47.030;15.396;2022-08-20T05:25:38;8.00;;;3.07;;
8399;SDS011;4237;47.030;15.396;2022-08-20T05:28:15;7.60;;;3.40;;
8399;SDS011;4237;47.030;15.396;2022-08-20T05:30:40;4.50;;;3.07;;
8399;SDS011;4237;47.030;15.396;2022-08-20T05:33:09;12.60;;;3.20;;
8399;SDS011;4237;47.030;15.396;2022-08-20T05:35:40;8.67;;;3.37;;
8399;SDS011;4237;47.030;15.396;2022-08-20T05:38:09;8.30;;;3.20;;
8399;SDS011;4237;47.030;15.396;2022-08-20T05:40:39;4.77;;;3.30;;
8399;SDS011;4237;47.030;15.396;2022-08-20T05:43:08;6.13;;;2.93;;
8399;SDS011;4237;47.030;15.396;2022-08-20T05:45:37;8.40;;;3.10;;
8399;SDS011;4237;47.030;15.396;2022-08-20T05:48:06;5.13;;;2.93;;
8399;SDS011;4237;47.030;15.396;2022-08-20T05:50:37;5.77;;;2.97;;
8399;SDS011;4237;47.030;15.396;2022-08-20T05:53:05;4.83;;;2.77;;
8399;SDS011;4237;47.030;15.396;2022-08-20T05:55:34;5.57;;;2.77;;
8399;SDS011;4237;47.030;15.396;2022-08-20T05:58:05;6.63;;;2.80;;
8399;SDS011;4237;47.030;15.396;2022-08-20T06:00:34;5.40;;;3.07;;
8399;SDS011;4237;47.030;15.396;2022-08-20T06:03:03;7.57;;;3.60;;
8399;SDS011;4237;47.030;15.396;2022-08-20T06:05:49;9.47;;;4.60;;
8399;SDS011;4237;47.030;15.396;2022-08-20T06:08:17;6.50;;;3.73;;
8399;SDS011;4237;47.030;15.396;2022-08-20T06:10:46;12.20;;;3.73;;
8399;SDS011;4237;47.030;15.396;2022-08-20T06:13:14;10.17;;;4.13;;
8399;SDS011;4237;47.030;15.396;2022-08-20T06:15:43;10.77;;;3.73;;
8399;SDS011;4237;47.030;15.396;2022-08-20T06:18:11;7.97;;;3.97;;
8399;SDS011;4237;47.030;15.396;2022-08-20T06:20:39;6.80;;;3.80;;
8399;SDS011;4237;47.030;15.396;2022-08-20T06:23:07;10.97;;;4.43;;
8399;SDS011;4237;47.030;15.396;2022-08-20T06:25:36;12.23;;;4.20;;
8399;SDS011;4237;47.030;15.396;2022-08-20T06:28:06;8.90;;;3.80;;
8399;SDS011;4237;47.030;15.396;2022-08-20T06:30:34;5.10;;;3.70;;
8399;SDS011;4237;47.030;15.396;2022-08-20T06:33:02;7.43;;;3.67;;
8399;SDS011;4237;47.030;15.396;2022-08-20T06:35:31;6.20;;;3.23;;
8399;SDS011;4237;47.030;15.396;2022-08-20T06:38:00;6.23;;;3.23;;
8399;SDS011;4237;47.030;15.396;2022-08-20T06:40:30;7.87;;;3.00;;
8399;SDS011;4237;47.030;15.396;2022-08-20T06:43:00;8.27;;;3.00;;
8399;SDS011;4237;47.030;15.396;2022-08-20T06:45:29;10.47;;;3.73;;
8399;SDS011;4237;47.030;15.396;2022-08-20T06:47:59;6.40;;;3.10;;
8399;SDS011;4237;47.030;15.396;2022-08-20T06:50:30;8.10;;;3.27;;
8399;SDS011;4237;47.030;15.396;2022-08-20T06:52:58;7.17;;;2.93;;
8399;SDS011;4237;47.030;15.396;2022-08-20T06:55:26;9.28;;;3.62;;
8399;SDS011;4237;47.030;15.396;2022-08-20T06:57:57;7.67;;;3.80;;
8399;SDS011;4237;47.030;15.396;2022-08-20T07:00:27;8.60;;;3.00;;
8399;SDS011;4237;47.030;15.396;2022-08-20T07:02:57;10.48;;;3.30;;
8399;SDS011;4237;47.030;15.396;2022-08-20T07:05:30;5.20;;;3.05;;
8399;SDS011;4237;47.030;15.396;2022-08-20T07:07:58;6.28;;;2.60;;
8399;SDS011;4237;47.030;15.396;2022-08-20T07:10:27;6.70;;;2.50;;
8399;SDS011;4237;47.030;15.396;2022-08-20T07:12:56;7.58;;;2.65;;
8399;SDS011;4237;47.030;15.396;2022-08-20T07:15:26;2.98;;;1.92;;
8399;SDS011;4237;47.030;15.396;2022-08-20T07:17:55;5.30;;;1.92;;
8399;SDS011;4237;47.030;15.396;2022-08-20T07:20:24;8.48;;;2.30;;
8399;SDS011;4237;47.030;15.396;2022-08-20T07:22:53;5.75;;;2.72;;
8399;SDS011;4237;47.030;15.396;2022-08-20T07:25:21;7.80;;;2.92;;
8399;SDS011;4237;47.030;15.396;2022-08-20T07:27:49;10.70;;;3.05;;
8399;SDS011;4237;47.030;15.396;2022-08-20T07:30:22;9.20;;;2.67;;
8399;SDS011;4237;47.030;15.396;2022-08-20T07:33:08;5.22;;;3.02;;
8399;SDS011;4237;47.030;15.396;2022-08-20T07:35:37;4.20;;;2.33;;
8399;SDS011;4237;47.030;15.396;2022-08-20T07:38:05;7.42;;;2.67;;
8399;SDS011;4237;47.030;15.396;2022-08-20T07:40:34;4.83;;;2.42;;
8399;SDS011;4237;47.030;15.396;2022-08-20T07:43:02;2.98;;;2.10;;
8399;SDS011;4237;47.030;15.396;2022-08-20T07:45:30;8.15;;;2.00;;
8399;SDS011;4237;47.030;15.396;2022-08-20T07:48:06;4.37;;;1.62;;
8399;SDS011;4237;47.030;15.396;2022-08-20T07:50:35;4.60;;;2.40;;
8399;SDS011;4237;47.030;15.396;2022-08-20T07:53:03;5.85;;;2.15;;
8399;SDS011;4237;47.030;15.396;2022-08-20T07:55:31;5.28;;;2.17;;
8399;SDS011;4237;47.030;15.396;2022-08-20T07:58:06;3.95;;;1.85;;
8399;SDS011;4237;47.030;15.396;2022-08-20T08:00:29;3.67;;;2.02;;
8399;SDS011;4237;47.030;15.396;2022-08-20T08:02:58;4.47;;;1.75;;
8399;SDS011;4237;47.030;15.396;2022-08-20T08:05:26;4.85;;;1.82;;
8399;SDS011;4237;47.030;15.396;2022-08-20T08:07:55;5.05;;;1.82;;
8399;SDS011;4237;47.030;15.396;2022-08-20T08:10:25;7.33;;;2.10;;
8399;SDS011;4237;47.030;15.396;2022-08-20T08:12:56;4.83;;;2.40;;
8399;SDS011;4237;47.030;15.396;2022-08-20T08:15:24;3.42;;;2.00;;
8399;SDS011;4237;47.030;15.396;2022-08-20T08:17:54;4.03;;;2.12;;
8399;SDS011;4237;47.030;15.396;2022-08-20T08:20:23;5.22;;;2.12;;
8399;SDS011;4237;47.030;15.396;2022-08-20T08:22:51;3.72;;;2.00;;
8399;SDS011;4237;47.030;15.396;2022-08-20T08:25:20;3.25;;;1.70;;
8399;SDS011;4237;47.030;15.396;2022-08-20T08:27:48;4.17;;;2.08;;
8399;SDS011;4237;47.030;15.396;2022-08-20T08:30:17;4.30;;;1.80;;
8399;SDS011;4237;47.030;15.396;2022-08-20T08:32:45;4.03;;;2.02;;
8399;SDS011;4237;47.030;15.396;2022-08-20T08:35:31;3.52;;;1.90;;
8399;SDS011;4237;47.030;15.396;2022-08-20T08:38:00;5.67;;;2.08;;
8399;SDS011;4237;47.030;15.396;2022-08-20T08:40:29;5.30;;;1.95;;
8399;SDS011;4237;47.030;15.396;2022-08-20T08:43:00;3.85;;;2.02;;
8399;SDS011;4237;47.030;15.396;2022-08-20T08:45:30;5.22;;;2.25;;
8399;SDS011;4237;47.030;15.396;2022-08-20T08:47:57;6.33;;;2.00;;
8399;SDS011;4237;47.030;15.396;2022-08-20T08:50:28;2.77;;;1.60;;
8399;SDS011;4237;47.030;15.396;2022-08-20T08:52:56;3.62;;;1.47;;
8399;SDS011;4237;47.030;15.396;2022-08-20T08:55:27;2.00;;;1.30;;
8399;SDS011;4237;47.030;15.396;2022-08-20T08:57:57;2.80;;;1.50;;
8399;SDS011;4237;47.030;15.396;2022-08-20T09:00:26;1.75;;;1.30;;
8399;SDS011;4237;47.030;15.396;2022-08-20T09:03:04;2.17;;;1.10;;
8399;SDS011;4237;47.030;15.396;2022-08-20T09:05:38;4.58;;;1.52;;
8399;SDS011;4237;47.030;15.396;2022-08-20T09:08:04;4.10;;;1.70;;
8399;SDS011;4237;47.030;15.396;2022-08-20T09:10:34;2.65;;;1.80;;
8399;SDS011;4237;47.030;15.396;2022-08-20T09:13:03;3.33;;;1.52;;
8399;SDS011;4237;47.030;15.396;2022-08-20T09:15:31;3.05;;;1.40;;
8399;SDS011;4237;47.030;15.396;2022-08-20T09:17:59;2.85;;;1.60;;
8399;SDS011;4237;47.030;15.396;2022-08-20T09:20:27;2.85;;;1.60;;
8399;SDS011;4237;47.030;15.396;2022-08-20T09:22:56;2.27;;;1.90;;
8399;SDS011;4237;47.030;15.396;2022-08-20T09:25:24;2.72;;;2.15;;
8399;SDS011;4237;47.030;15.396;2022-08-20T09:27:52;6.00;;;2.27;;
8399;SDS011;4237;47.030;15.396;2022-08-20T09:30:21;2.72;;;1.62;;
8399;SDS011;4237;47.030;15.396;2022-08-20T09:32:49;2.40;;;1.30;;
8399;SDS011;4237;47.030;15.396;2022-08-20T09:35:17;2.33;;;1.50;;
8399;SDS011;4237;47.030;15.396;2022-08-20T09:37:45;6.58;;;2.10;;
8399;SDS011;4237;47.030;15.396;2022-08-20T09:40:14;5.17;;;1.62;;
8399;SDS011;4237;47.030;15.396;2022-08-20T09:42:42;3.15;;;1.98;;
8399;SDS011;4237;47.030;15.396;2022-08-20T09:45:10;4.45;;;2.20;;
8399;SDS011;4237;47.030;15.396;2022-08-20T09:47:39;3.90;;;2.07;;
8399;SDS011;4237;47.030;15.396;2022-08-20T09:50:08;3.60;;;1.85;;
8399;SDS011;4237;47.030;15.396;2022-08-20T09:52:38;1.83;;;1.53;;
8399;SDS011;4237;47.030;15.396;2022-08-20T09:57:39;3.23;;;1.10;;
8399;SDS011;4237;47.030;15.396;2022-08-20T10:00:07;2.00;;;0.87;;
8399;SDS011;4237;47.030;15.396;2022-08-20T10:02:38;1.30;;;0.80;;
8399;SDS011;4237;47.030;15.396;2022-08-20T10:05:07;1.20;;;0.90;;
8399;SDS011;4237;47.030;15.396;2022-08-20T10:07:40;1.00;;;0.87;;
8399;SDS011;4237;47.030;15.396;2022-08-20T10:10:06;1.43;;;0.70;;
8399;SDS011;4237;47.030;15.396;2022-08-20T10:12:34;0.40;;;0.40;;
8399;SDS011;4237;47.030;15.396;2022-08-20T10:15:03;0.47;;;0.40;;
8399;SDS011;4237;47.030;15.396;2022-08-20T10:17:31;1.47;;;0.60;;
8399;SDS011;4237;47.030;15.396;2022-08-20T10:19:59;1.57;;;0.40;;
8399;SDS011;4237;47.030;15.396;2022-08-20T10:22:28;1.80;;;0.60;;
8399;SDS011;4237;47.030;15.396;2022-08-20T10:24:57;0.50;;;0.50;;
8399;SDS011;4237;47.030;15.396;2022-08-20T10:27:26;0.30;;;0.30;;
8399;SDS011;4237;47.030;15.396;2022-08-20T10:29:54;0.57;;;0.40;;
8399;SDS011;4237;47.030;15.396;2022-08-20T10:32:22;2.97;;;0.40;;
8399;SDS011;4237;47.030;15.396;2022-08-20T10:34:50;0.53;;;0.30;;
8399;SDS011;4237;47.030;15.396;2022-08-20T10:37:20;0.27;;;0.27;;
8399;SDS011;4237;47.030;15.396;2022-08-20T10:39:48;0.20;;;0.20;;
8399;SDS011;4237;47.030;15.396;2022-08-20T10:42:16;0.20;;;0.20;;
8399;SDS011;4237;47.030;15.396;2022-08-20T10:44:45;0.30;;;0.30;;
8399;SDS011;4237;47.030;15.396;2022-08-20T10:47:18;1.33;;;0.20;;
8399;SDS011;4237;47.030;15.396;2022-08-20T10:49:47;0.40;;;0.30;;
8399;SDS011;4237;47.030;15.396;2022-08-20T10:52:15;1.00;;;0.40;;
8399;SDS011;4237;47.030;15.396;2022-08-20T10:54:44;2.07;;;0.50;;
8399;SDS011;4237;47.030;15.396;2022-08-20T10:57:15;2.43;;;0.57;;
8399;SDS011;4237;47.030;15.396;2022-08-20T10:59:43;0.50;;;0.50;;
8399;SDS011;4237;47.030;15.396;2022-08-20T11:02:11;1.13;;;0.70;;
8399;SDS011;4237;47.030;15.396;2022-08-20T11:04:40;1.40;;;0.73;;
8399;SDS011;4237;47.030;15.396;2022-08-20T11:07:14;0.93;;;0.70;;
8399;SDS011;4237;47.030;15.396;2022-08-20T11:09:38;0.50;;;0.50;;
8399;SDS011;4237;47.030;15.396;2022-08-20T11:12:06;0.80;;;0.60;;
8399;SDS011;4237;47.030;15.396;2022-08-20T11:14:35;1.97;;;1.07;;
8399;SDS011;4237;47.030;15.396;2022-08-20T11:17:03;2.00;;;1.23;;
8399;SDS011;4237;47.030;15.396;2022-08-20T11:19:32;0.60;;;0.60;;
8399;SDS011;4237;47.030;15.396;2022-08-20T11:22:00;1.00;;;0.87;;
8399;SDS011;4237;47.030;15.396;2022-08-20T11:24:28;1.93;;;0.70;;
8399;SDS011;4237;47.030;15.396;2022-08-20T11:26:56;3.60;;;2.30;;
8399;SDS011;4237;47.030;15.396;2022-08-20T11:29:24;1.93;;;1.00;;
8399;SDS011;4237;47.030;15.396;2022-08-20T11:31:53;3.57;;;2.73;;
8399;SDS011;4237;47.030;15.396;2022-08-20T11:34:21;7.53;;;5.50;;
8399;SDS011;4237;47.030;15.396;2022-08-20T11:36:49;10.30;;;7.37;;
8399;SDS011;4237;47.030;15.396;2022-08-20T11:39:18;7.13;;;5.20;;
8399;SDS011;4237;47.030;15.396;2022-08-20T11:41:47;6.17;;;4.53;;
8399;SDS011;4237;47.030;15.396;2022-08-20T11:44:15;3.03;;;2.47;;
8399;SDS011;4237;47.030;15.396;2022-08-20T11:46:43;2.90;;;1.73;;
8399;SDS011;4237;47.030;15.396;2022-08-20T11:49:11;3.47;;;1.77;;
8399;SDS011;4237;47.030;15.396;2022-08-20T11:51:39;1.30;;;1.20;;
8399;SDS011;4237;47.030;15.396;2022-08-20T11:54:08;1.20;;;1.10;;
8399;SDS011;4237;47.030;15.396;2022-08-20T11:56:36;1.30;;;1.00;;
8399;SDS011;4237;47.030;15.396;2022-08-20T11:59:04;2.20;;;1.33;;
8399;SDS011;4237;47.030;15.396;2022-08-20T12:01:32;1.40;;;1.00;;
8399;SDS011;4237;47.030;15.396;2022-08-20T12:04:01;1.27;;;0.70;;
8399;SDS011;4237;47.030;15.396;2022-08-20T12:06:29;0.87;;;0.50;;
8399;SDS011;4237;47.030;15.396;2022-08-20T12:08:57;0.63;;;0.63;;
8399;SDS011;4237;47.030;15.396;2022-08-20T12:11:25;2.33;;;0.93;;
8399;SDS011;4237;47.030;15.396;2022-08-20T12:13:53;1.47;;;0.73;;
8399;SDS011;4237;47.030;15.396;2022-08-20T12:16:22;1.17;;;1.00;;
8399;SDS011;4237;47.030;15.396;2022-08-20T12:18:50;1.20;;;0.87;;
8399;SDS011;4237;47.030;15.396;2022-08-20T12:21:18;2.13;;;0.93;;
8399;SDS011;4237;47.030;15.396;2022-08-20T12:23:47;2.87;;;1.00;;
8399;SDS011;4237;47.030;15.396;2022-08-20T12:26:15;1.17;;;0.80;;
8399;SDS011;4237;47.030;15.396;2022-08-20T12:28:43;3.03;;;1.00;;
8399;SDS011;4237;47.030;15.396;2022-08-20T12:31:12;7.80;;;1.00;;
8399;SDS011;4237;47.030;15.396;2022-08-20T12:33:40;1.63;;;0.83;;
8399;SDS011;4237;47.030;15.396;2022-08-20T12:36:08;3.03;;;1.33;;
8399;SDS011;4237;47.030;15.396;2022-08-20T12:38:37;1.13;;;1.00;;
8399;SDS011;4237;47.030;15.396;2022-08-20T12:41:05;1.47;;;0.90;;
8399;SDS011;4237;47.030;15.396;2022-08-20T12:46:21;1.17;;;0.90;;
8399;SDS011;4237;47.030;15.396;2022-08-20T12:48:49;2.30;;;0.90;;
8399;SDS011;4237;47.030;15.396;2022-08-20T12:51:17;4.63;;;1.10;;
8399;SDS011;4237;47.030;15.396;2022-08-20T12:53:45;1.47;;;1.00;;
8399;SDS011;4237;47.030;15.396;2022-08-20T12:56:13;1.10;;;0.90;;
8399;SDS011;4237;47.030;15.396;2022-08-20T12:58:42;3.80;;;1.37;;
8399;SDS011;4237;47.030;15.396;2022-08-20T13:01:11;2.50;;;0.90;;
8399;SDS011;4237;47.030;15.396;2022-08-20T13:03:40;2.30;;;1.20;;
8399;SDS011;4237;47.030;15.396;2022-08-20T13:06:09;1.70;;;1.00;;
8399;SDS011;4237;47.030;15.396;2022-08-20T13:08:37;2.70;;;1.10;;
8399;SDS011;4237;47.030;15.396;2022-08-20T13:11:05;1.60;;;0.90;;
8399;SDS011;4237;47.030;15.396;2022-08-20T13:13:33;1.90;;;1.10;;
8399;SDS011;4237;47.030;15.396;2022-08-20T13:16:01;2.23;;;1.00;;
8399;SDS011;4237;47.030;15.396;2022-08-20T13:18:30;2.87;;;0.97;;
8399;SDS011;4237;47.030;15.396;2022-08-20T13:20:58;1.50;;;1.03;;
8399;SDS011;4237;47.030;15.396;2022-08-20T13:23:26;1.60;;;1.00;;
8399;SDS011;4237;47.030;15.396;2022-08-20T13:25:54;2.17;;;0.90;;
8399;SDS011;4237;47.030;15.396;2022-08-20T13:28:23;2.30;;;0.97;;
8399;SDS011;4237;47.030;15.396;2022-08-20T13:30:51;4.73;;;1.17;;
8399;SDS011;4237;47.030;15.396;2022-08-20T13:33:19;3.67;;;0.90;;
8399;SDS011;4237;47.030;15.396;2022-08-20T13:35:47;1.00;;;0.80;;
8399;SDS011;4237;47.030;15.396;2022-08-20T13:38:15;3.00;;;1.30;;
8399;SDS011;4237;47.030;15.396;2022-08-20T13:40:44;1.63;;;1.10;;
8399;SDS011;4237;47.030;15.396;2022-08-20T13:43:12;2.00;;;0.97;;
8399;SDS011;4237;47.030;15.396;2022-08-20T13:45:40;1.90;;;1.33;;
8399;SDS011;4237;47.030;15.396;2022-08-20T13:48:08;1.67;;;1.10;;
8399;SDS011;4237;47.030;15.396;2022-08-20T13:50:37;2.50;;;1.13;;
8399;SDS011;4237;47.030;15.396;2022-08-20T13:53:05;1.60;;;1.20;;
8399;SDS011;4237;47.030;15.396;2022-08-20T13:55:34;2.37;;;1.40;;
8399;SDS011;4237;47.030;15.396;2022-08-20T13:58:05;2.73;;;1.07;;
8399;SDS011;4237;47.030;15.396;2022-08-20T14:00:34;2.50;;;1.17;;
8399;SDS011;4237;47.030;15.396;2022-08-20T14:03:03;1.37;;;1.10;;
8399;SDS011;4237;47.030;15.396;2022-08-20T14:05:33;1.77;;;1.10;;
8399;SDS011;4237;47.030;15.396;2022-08-20T14:08:21;2.53;;;0.93;;
8399;SDS011;4237;47.030;15.396;2022-08-20T14:10:35;4.27;;;1.50;;
8399;SDS011;4237;47.030;15.396;2022-08-20T14:13:04;4.03;;;1.13;;
8399;SDS011;4237;47.030;15.396;2022-08-20T14:15:33;4.40;;;1.13;;
8399;SDS011;4237;47.030;15.396;2022-08-20T14:18:02;1.53;;;1.10;;
8399;SDS011;4237;47.030;15.396;2022-08-20T14:20:31;1.87;;;1.10;;
8399;SDS011;4237;47.030;15.396;2022-08-20T14:23:00;0.87;;;0.73;;
8399;SDS011;4237;47.030;15.396;2022-08-20T14:25:29;2.70;;;0.80;;
8399;SDS011;4237;47.030;15.396;2022-08-20T14:27:58;1.10;;;0.70;;
8399;SDS011;4237;47.030;15.396;2022-08-20T14:30:28;1.20;;;0.80;;
8399;SDS011;4237;47.030;15.396;2022-08-20T14:32:57;0.83;;;0.70;;
8399;SDS011;4237;47.030;15.396;2022-08-20T14:35:25;1.07;;;0.70;;
8399;SDS011;4237;47.030;15.396;2022-08-20T14:37:53;2.27;;;0.90;;
8399;SDS011;4237;47.030;15.396;2022-08-20T14:40:23;3.40;;;0.62;;
8399;SDS011;4237;47.030;15.396;2022-08-20T14:42:52;0.42;;;0.37;;
8399;SDS011;4237;47.030;15.396;2022-08-20T14:45:20;0.90;;;0.40;;
8399;SDS011;4237;47.030;15.396;2022-08-20T14:47:53;0.20;;;0.20;;
8399;SDS011;4237;47.030;15.396;2022-08-20T14:50:24;0.20;;;0.20;;
8399;SDS011;4237;47.030;15.396;2022-08-20T14:52:53;0.28;;;0.28;;
8399;SDS011;4237;47.030;15.396;2022-08-20T14:55:23;0.20;;;0.10;;
8399;SDS011;4237;47.030;15.396;2022-08-20T14:57:51;0.40;;;0.40;;
8399;SDS011;4237;47.030;15.396;2022-08-20T15:00:21;0.72;;;0.30;;
8399;SDS011;4237;47.030;15.396;2022-08-20T15:02:49;0.20;;;0.20;;
8399;SDS011;4237;47.030;15.396;2022-08-20T15:05:18;0.70;;;0.28;;
8399;SDS011;4237;47.030;15.396;2022-08-20T15:07:46;0.75;;;0.40;;
8399;SDS011;4237;47.030;15.396;2022-08-20T15:10:21;0.20;;;0.20;;
8399;SDS011;4237;47.030;15.396;2022-08-20T15:12:45;0.50;;;0.30;;
8399;SDS011;4237;47.030;15.396;2022-08-20T15:15:14;0.17;;;0.17;;
8399;SDS011;4237;47.030;15.396;2022-08-20T15:17:49;0.30;;;0.20;;
8399;SDS011;4237;47.030;15.396;2022-08-20T15:20:13;0.37;;;0.37;;